createdAt,value
2023-01-11T00:01:33.929Z,98.80
2023-01-11T00:03:42.492Z,98.70
2023-01-11T00:05:49.793Z,98.50
2023-01-11T00:07:56.966Z,98.50
2023-01-11T00:10:05.827Z,98.60
2023-01-11T00:12:15.365Z,98.80
2023-01-11T00:14:22.546Z,98.60
2023-01-11T00:16:29.454Z,98.00
2023-01-11T00:18:36.813Z,97.60
2023-01-11T00:20:45.579Z,97.50
2023-01-11T00:22:52.823Z,97.30
2023-01-11T00:24:59.700Z,97.60
2023-01-11T00:27:07.028Z,97.80
2023-01-11T00:29:13.892Z,98.00
2023-01-11T00:31:21.544Z,98.00
2023-01-11T00:33:28.511Z,97.80
2023-01-11T00:35:35.951Z,97.50
2023-01-11T00:37:44.670Z,97.40
2023-01-11T00:39:52.629Z,97.30
2023-01-11T00:42:16.191Z,97.00
2023-01-11T00:44:40.056Z,96.60
2023-01-11T00:47:03.774Z,96.10
2023-01-11T00:49:11.061Z,95.70
2023-01-11T00:51:18.190Z,95.60
2023-01-11T00:53:27.214Z,95.50
2023-01-11T00:55:34.603Z,95.40
2023-01-11T00:57:41.752Z,95.50
2023-01-11T00:59:48.815Z,95.50
2023-01-11T01:01:55.991Z,95.60
2023-01-11T01:04:04.044Z,95.40
2023-01-11T01:06:11.386Z,95.30
2023-01-11T01:08:18.179Z,95.40
2023-01-11T01:10:27.124Z,95.50
2023-01-11T01:12:50.495Z,95.50
2023-01-11T01:14:57.616Z,95.70
2023-01-11T01:17:08.180Z,95.80
2023-01-11T01:19:15.497Z,95.70
2023-01-11T01:21:22.336Z,95.80
2023-01-11T01:23:29.567Z,95.70
2023-01-11T01:25:40.591Z,95.50
2023-01-11T01:27:48.033Z,95.30
2023-01-11T01:29:54.942Z,95.10
2023-01-11T01:32:02.133Z,95.00
2023-01-11T01:34:10.188Z,94.70
2023-01-11T01:36:17.428Z,94.40
2023-01-11T01:38:24.499Z,94.20
2023-01-11T01:40:33.014Z,94.00
2023-01-11T01:42:41.626Z,93.80
2023-01-11T01:45:00.689Z,93.60
2023-01-11T01:47:08.948Z,94.10
2023-01-11T01:49:18.842Z,94.10
2023-01-11T01:51:29.420Z,94.10
2023-01-11T01:53:39.758Z,94.10
2023-01-11T01:55:49.561Z,94.10
2023-01-11T01:58:00.574Z,93.90
2023-01-11T02:00:12.768Z,93.60
2023-01-11T02:02:20.209Z,93.50
2023-01-11T02:04:29.797Z,93.50
2023-01-11T02:06:37.281Z,93.50
2023-01-11T02:08:47.229Z,93.50
2023-01-11T02:10:55.743Z,93.40
2023-01-11T02:13:07.788Z,93.30
2023-01-11T02:15:16.457Z,93.20
2023-01-11T02:17:23.380Z,93.10
2023-01-11T02:19:49.659Z,93.00
2023-01-11T02:22:20.190Z,93.00
2023-01-11T02:24:51.276Z,93.30
2023-01-11T02:27:20.736Z,93.40
2023-01-11T02:29:39.743Z,93.90
2023-01-11T02:31:53.836Z,94.00
2023-01-11T02:34:13.971Z,93.90
2023-01-11T02:36:30.062Z,94.30
2023-01-11T02:38:42.574Z,94.30
2023-01-11T02:40:58.147Z,94.40
2023-01-11T02:43:30.879Z,94.50
2023-01-11T02:45:49.224Z,94.70
2023-01-11T02:48:03.110Z,94.90
2023-01-11T02:50:19.866Z,94.80
2023-01-11T02:52:34.476Z,94.80
2023-01-11T02:54:44.865Z,94.80
2023-01-11T02:56:54.679Z,94.70
2023-01-11T02:59:03.292Z,94.90
2023-01-11T03:01:12.414Z,95.10
2023-01-11T03:03:22.873Z,95.50
2023-01-11T03:05:32.362Z,95.50
2023-01-11T03:07:54.199Z,95.50
2023-01-11T03:10:15.137Z,95.50
2023-01-11T03:12:56.017Z,95.50
2023-01-11T03:15:13.631Z,95.70
2023-01-11T03:17:33.209Z,95.80
2023-01-11T03:19:47.941Z,95.90
2023-01-11T03:22:06.003Z,95.80
2023-01-11T03:24:23.475Z,95.80
2023-01-11T03:26:36.698Z,95.60
2023-01-11T03:28:58.830Z,95.70
2023-01-11T03:31:10.633Z,95.90
2023-01-11T03:33:26.197Z,96.20
2023-01-11T03:35:41.847Z,96.10
2023-01-11T03:37:54.548Z,96.10
2023-01-11T03:40:05.776Z,96.20
2023-01-11T03:42:18.357Z,96.40
2023-01-11T03:44:26.633Z,96.60
2023-01-11T03:46:37.174Z,96.90
2023-01-11T03:48:49.549Z,97.30
2023-01-11T03:51:25.399Z,97.30
2023-01-11T03:53:35.604Z,97.30
2023-01-11T03:55:45.393Z,97.40
2023-01-11T03:57:53.706Z,97.00
2023-01-11T04:00:00.659Z,96.80
2023-01-11T04:02:19.432Z,96.60
2023-01-11T04:04:28.482Z,96.40
2023-01-11T04:06:38.857Z,96.60
2023-01-11T04:08:45.737Z,96.70
2023-01-11T04:10:52.932Z,97.30
2023-01-11T04:12:59.846Z,97.80
2023-01-11T04:15:07.907Z,98.10
2023-01-11T04:17:14.878Z,98.20
2023-01-11T04:19:22.058Z,98.00
2023-01-11T04:21:30.663Z,98.40
2023-01-11T04:23:37.890Z,98.60
2023-01-11T04:25:44.779Z,98.70
2023-01-11T04:27:51.807Z,98.80
2023-01-11T04:29:58.835Z,98.20
2023-01-11T04:32:06.481Z,97.80
2023-01-11T04:34:14.529Z,98.10
2023-01-11T04:36:21.455Z,98.90
2023-01-11T04:38:30.071Z,99.40
2023-01-11T04:40:37.254Z,99.90
2023-01-11T04:42:43.307Z,99.90
2023-01-11T04:44:50.899Z,99.90
2023-01-11T04:46:57.926Z,99.90
2023-01-11T04:49:04.805Z,99.90
2023-01-11T04:51:12.249Z,99.90
2023-01-11T04:53:19.266Z,99.90
2023-01-11T04:55:28.091Z,99.90
2023-01-11T04:57:35.016Z,99.90
2023-01-11T04:59:42.242Z,99.90
2023-01-11T05:01:49.835Z,99.90
2023-01-11T05:03:58.048Z,99.90
2023-01-11T05:06:07.543Z,99.90
2023-01-11T05:08:14.711Z,99.90
2023-01-11T05:10:22.041Z,99.90
2023-01-11T05:12:31.126Z,99.90
2023-01-11T05:14:38.109Z,99.90
2023-01-11T05:16:45.758Z,99.90
2023-01-11T05:18:54.969Z,99.90
2023-01-11T05:21:02.270Z,99.90
2023-01-11T05:23:09.129Z,99.90
2023-01-11T05:25:16.209Z,99.90
2023-01-11T05:27:23.130Z,99.90
2023-01-11T05:29:32.192Z,99.90
2023-01-11T05:31:40.690Z,99.90
2023-01-11T05:33:48.313Z,99.90
2023-01-11T05:36:00.363Z,99.90
2023-01-11T05:38:07.589Z,99.90
2023-01-11T05:40:15.583Z,99.90
2023-01-11T05:42:22.773Z,99.90
2023-01-11T05:44:47.620Z,99.90
2023-01-11T05:46:54.850Z,99.90
2023-01-11T05:49:02.098Z,99.90
2023-01-11T05:51:09.774Z,99.90
2023-01-11T05:53:16.637Z,99.90
2023-01-11T05:55:23.986Z,99.90
2023-01-11T05:57:30.926Z,99.90
2023-01-11T05:59:39.885Z,99.90
2023-01-11T06:01:47.049Z,99.90
2023-01-11T06:03:54.565Z,99.90
2023-01-11T06:06:02.864Z,99.90
2023-01-11T06:08:10.199Z,99.90
2023-01-11T06:10:17.021Z,99.90
2023-01-11T06:12:24.257Z,99.90
2023-01-11T06:14:31.488Z,99.90
2023-01-11T06:16:40.511Z,99.90
2023-01-11T06:18:48.738Z,99.90
2023-01-11T06:20:57.333Z,99.90
2023-01-11T06:23:04.258Z,99.90
2023-01-11T06:25:11.803Z,99.90
2023-01-11T06:27:20.620Z,99.90
2023-01-11T06:29:30.104Z,99.90
2023-01-11T06:31:38.719Z,99.90
2023-01-11T06:33:45.642Z,99.90
2023-01-11T06:35:52.826Z,99.90
2023-01-11T06:37:59.701Z,99.90
2023-01-11T06:40:07.037Z,99.90
2023-01-11T06:42:13.911Z,99.90
2023-01-11T06:44:21.144Z,99.90
2023-01-11T06:46:29.177Z,99.90
2023-01-11T06:48:39.091Z,99.90
2023-01-11T06:50:46.074Z,99.90
2023-01-11T06:52:57.294Z,99.90
2023-01-11T06:55:04.238Z,99.90
2023-01-11T06:57:11.401Z,99.90
2023-01-11T06:59:18.328Z,99.90
2023-01-11T07:01:27.552Z,99.90
2023-01-11T07:03:34.688Z,99.90
2023-01-11T07:05:45.455Z,99.90
2023-01-11T07:07:52.383Z,99.90
2023-01-11T07:09:59.713Z,99.90
2023-01-11T07:12:06.843Z,99.90
2023-01-11T07:14:19.899Z,99.90
2023-01-11T07:16:27.151Z,99.90
2023-01-11T07:18:34.479Z,99.90
2023-01-11T07:20:43.097Z,99.90
2023-01-11T07:22:50.283Z,99.90
2023-01-11T07:24:57.204Z,99.90
2023-01-11T07:27:04.390Z,99.90
2023-01-11T07:29:11.420Z,99.90
2023-01-11T07:31:18.623Z,99.90
2023-01-11T07:33:25.723Z,99.90
2023-01-11T07:35:33.011Z,99.90
2023-01-11T07:37:43.726Z,99.90
2023-01-11T07:39:51.419Z,99.90
2023-01-11T07:42:15.403Z,99.90
2023-01-11T07:44:22.538Z,99.90
2023-01-11T07:46:29.591Z,99.90
2023-01-11T07:48:36.888Z,99.90
2023-01-11T07:50:45.239Z,99.90
2023-01-11T07:52:54.476Z,99.90
2023-01-11T07:55:03.613Z,99.90
2023-01-11T07:57:11.106Z,99.90
2023-01-11T07:59:17.973Z,99.90
2023-01-11T08:01:25.410Z,99.90
2023-01-11T08:03:32.447Z,99.90
2023-01-11T08:05:39.870Z,99.90
2023-01-11T08:07:46.797Z,99.90
2023-01-11T08:09:55.718Z,99.90
2023-01-11T08:12:19.180Z,99.90
2023-01-11T08:14:44.800Z,99.90
2023-01-11T08:16:51.624Z,99.90
2023-01-11T08:18:59.004Z,99.90
2023-01-11T08:21:05.933Z,99.90
2023-01-11T08:23:14.445Z,99.90
2023-01-11T08:25:23.471Z,99.90
2023-01-11T08:27:30.731Z,99.90
2023-01-11T08:29:38.040Z,99.90
2023-01-11T08:31:48.146Z,99.90
2023-01-11T08:33:55.149Z,99.90
2023-01-11T08:36:07.108Z,99.90
2023-01-11T08:38:14.036Z,99.90
2023-01-11T08:40:24.431Z,99.90
2023-01-11T08:42:31.470Z,99.90
2023-01-11T08:44:38.702Z,99.90
2023-01-11T08:46:45.593Z,99.90
2023-01-11T08:48:54.373Z,99.90
2023-01-11T08:51:01.346Z,99.90
2023-01-11T08:53:09.229Z,99.90
2023-01-11T08:55:16.349Z,99.90
2023-01-11T08:57:25.374Z,99.90
2023-01-11T08:59:32.351Z,99.90
2023-01-11T09:01:39.738Z,99.90
2023-01-11T09:03:46.613Z,99.90
2023-01-11T09:05:54.975Z,99.90
2023-01-11T09:08:01.948Z,99.90
2023-01-11T09:10:10.022Z,99.90
2023-01-11T09:12:17.284Z,99.90
2023-01-11T09:14:27.204Z,99.90
2023-01-11T09:16:34.124Z,99.90
2023-01-11T09:18:41.096Z,99.90
2023-01-11T09:20:48.008Z,99.90
2023-01-11T09:22:55.960Z,99.90
2023-01-11T09:25:03.089Z,99.90
2023-01-11T09:27:10.130Z,99.90
2023-01-11T09:29:17.182Z,99.90
2023-01-11T09:31:26.584Z,99.90
2023-01-11T09:33:33.659Z,99.90
2023-01-11T09:35:43.346Z,99.90
2023-01-11T09:37:52.640Z,99.90
2023-01-11T09:40:00.783Z,99.90
2023-01-11T09:42:33.415Z,99.90
2023-01-11T09:44:50.808Z,99.90
2023-01-11T09:47:13.427Z,99.90
2023-01-11T09:49:25.217Z,99.90
2023-01-11T09:51:37.111Z,99.90
2023-01-11T09:53:46.645Z,99.90
2023-01-11T09:55:55.774Z,99.90
2023-01-11T09:58:22.824Z,99.90
2023-01-11T10:00:36.214Z,99.90
2023-01-11T10:03:01.042Z,99.90
2023-01-11T10:05:27.321Z,99.90
2023-01-11T10:07:47.041Z,99.90
2023-01-11T10:18:31.018Z,99.90
2023-01-11T10:18:39.330Z,99.90
2023-01-11T10:20:36.050Z,99.90
2023-01-11T10:22:48.113Z,99.90
2023-01-11T10:24:59.400Z,99.90
2023-01-11T10:27:10.619Z,99.90
2023-01-11T10:29:46.945Z,99.90
2023-01-11T10:32:18.443Z,99.90
2023-01-11T10:34:43.806Z,99.90
2023-01-11T10:37:14.740Z,99.90
2023-01-11T10:39:47.571Z,99.90
2023-01-11T10:42:04.900Z,99.90
2023-01-11T10:44:24.568Z,99.90
2023-01-11T10:46:34.007Z,99.90
2023-01-11T10:48:42.974Z,99.90
2023-01-11T10:50:57.378Z,99.90
2023-01-11T10:53:09.576Z,99.90
2023-01-11T10:55:19.520Z,99.90
2023-01-11T10:58:01.567Z,99.90
2023-01-11T11:00:25.394Z,99.90
2023-01-11T11:02:51.978Z,99.90
2023-01-11T11:05:18.982Z,99.90
2023-01-11T11:07:35.524Z,99.90
2023-01-11T11:09:53.564Z,99.90
2023-01-11T11:12:06.117Z,99.90
2023-01-11T11:14:22.668Z,99.90
2023-01-11T11:16:47.419Z,99.90
2023-01-11T11:18:55.310Z,99.90
2023-01-11T11:21:06.749Z,99.90
2023-01-11T11:23:20.169Z,99.90
2023-01-11T11:25:32.789Z,99.90
2023-01-11T11:27:44.322Z,99.90
2023-01-11T11:29:54.484Z,99.90
2023-01-11T11:32:03.571Z,99.90
2023-01-11T11:34:11.958Z,99.90
2023-01-11T11:36:19.389Z,99.90
2023-01-11T11:38:30.954Z,99.90
2023-01-11T11:40:39.331Z,99.90
2023-01-11T11:42:46.207Z,99.90
2023-01-11T11:45:18.578Z,99.90
2023-01-11T11:47:25.605Z,99.90
2023-01-11T11:49:34.324Z,99.90
2023-01-11T11:51:42.877Z,99.90
2023-01-11T11:53:55.907Z,99.90
2023-01-11T11:56:08.821Z,99.90
2023-01-11T11:58:21.486Z,99.90
2023-01-11T12:00:32.198Z,99.90
2023-01-11T12:02:48.102Z,99.90
2023-01-11T12:04:56.443Z,99.90
2023-01-11T12:07:12.055Z,99.90
2023-01-11T12:09:31.545Z,99.90
2023-01-11T12:11:41.591Z,99.90
2023-01-11T12:14:03.953Z,99.90
2023-01-11T12:16:21.439Z,99.90
2023-01-11T12:18:31.554Z,99.90
2023-01-11T12:20:45.695Z,99.90
2023-01-11T12:22:53.439Z,99.90
2023-01-11T12:25:25.356Z,99.90
2023-01-11T12:27:35.408Z,99.90
2023-01-11T12:30:06.190Z,99.90
2023-01-11T12:32:42.300Z,99.90
2023-01-11T12:35:08.014Z,99.90
2023-01-11T12:37:27.259Z,99.90
2023-01-11T12:39:42.955Z,99.90
2023-01-11T12:42:03.704Z,99.90
2023-01-11T12:44:14.063Z,99.90
2023-01-11T12:46:28.714Z,99.90
2023-01-11T12:48:52.393Z,99.90
2023-01-11T12:51:12.533Z,99.90
2023-01-11T12:53:49.862Z,99.90
2023-01-11T12:56:32.272Z,99.90
2023-01-11T12:58:42.725Z,99.90
2023-01-11T13:01:08.309Z,99.90
2023-01-11T13:03:36.310Z,99.90
2023-01-11T13:05:54.449Z,99.90
2023-01-11T13:08:12.129Z,99.90
2023-01-11T13:10:35.667Z,99.90
2023-01-11T13:12:47.995Z,99.90
2023-01-11T13:15:20.167Z,99.90
2023-01-11T13:17:32.096Z,99.90
2023-01-11T13:19:46.197Z,99.90
2023-01-11T13:21:56.662Z,99.90
2023-01-11T13:24:08.957Z,99.90
2023-01-11T13:26:22.906Z,99.90
2023-01-11T13:28:36.325Z,99.90
2023-01-11T13:30:47.560Z,99.90
2023-01-11T13:33:00.472Z,99.90
2023-01-11T13:35:16.814Z,99.90
2023-01-11T13:37:32.190Z,99.90
2023-01-11T13:39:45.771Z,99.90
2023-01-11T13:41:56.796Z,99.90
2023-01-11T13:44:08.996Z,99.90
2023-01-11T13:46:24.321Z,99.90
2023-01-11T13:48:36.724Z,99.90
2023-01-11T13:50:50.205Z,99.90
2023-01-11T13:53:10.996Z,99.90
2023-01-11T13:55:26.857Z,99.90
2023-01-11T13:57:43.800Z,99.90
2023-01-11T13:59:56.810Z,99.90
2023-01-11T14:02:14.693Z,99.90
2023-01-11T14:04:26.746Z,99.90
2023-01-11T14:06:50.408Z,99.90
2023-01-11T14:09:13.718Z,99.90
2023-01-11T14:11:30.532Z,99.90
2023-01-11T14:14:19.077Z,99.90
2023-01-11T14:16:36.855Z,99.90
2023-01-11T14:18:51.155Z,99.90
2023-01-11T14:21:07.975Z,99.90
2023-01-11T14:23:16.279Z,99.90
2023-01-11T14:25:27.394Z,99.90
2023-01-11T14:27:59.510Z,99.90
2023-01-11T14:30:34.958Z,99.90
2023-01-11T14:33:05.841Z,99.90
2023-01-11T14:35:51.121Z,99.90
2023-01-11T14:38:24.169Z,99.90
2023-01-11T14:40:53.097Z,99.90
2023-01-11T14:43:27.160Z,99.90
2023-01-11T14:45:50.719Z,99.90
2023-01-11T14:48:17.238Z,99.90
2023-01-11T14:50:36.882Z,99.90
2023-01-11T14:52:45.199Z,99.90
2023-01-11T14:54:55.444Z,99.90
2023-01-11T14:57:02.627Z,99.90
2023-01-11T14:59:24.403Z,99.90
2023-01-11T15:01:31.367Z,99.90
2023-01-11T15:03:59.140Z,99.90
2023-01-11T15:06:16.050Z,99.90
2023-01-11T15:08:26.879Z,99.90
2023-01-11T15:10:49.820Z,99.90
2023-01-11T15:13:00.380Z,99.90
2023-01-11T15:15:09.555Z,99.90
2023-01-11T15:17:36.552Z,99.90
2023-01-11T15:19:46.400Z,99.90
2023-01-11T15:21:57.367Z,99.90
2023-01-11T15:24:04.355Z,99.90
2023-01-11T15:26:12.036Z,99.90
2023-01-11T15:28:44.869Z,99.90
2023-01-11T15:30:55.935Z,99.90
2023-01-11T15:33:32.228Z,99.90
2023-01-11T15:35:39.697Z,99.90
2023-01-11T15:37:58.248Z,99.90
2023-01-11T15:40:12.748Z,99.90
2023-01-11T15:42:57.974Z,99.90
2023-01-11T15:45:28.447Z,99.90
2023-01-11T15:47:52.730Z,99.90
2023-01-11T15:50:49.271Z,99.90
2023-01-11T15:53:43.925Z,99.90
2023-01-11T15:56:31.855Z,99.90
2023-01-11T15:59:06.426Z,99.90
2023-01-11T16:01:25.792Z,99.90
2023-01-11T16:04:00.932Z,99.90
2023-01-11T16:06:20.197Z,99.90
2023-01-11T16:08:35.571Z,99.90
2023-01-11T16:11:11.508Z,99.90
2023-01-11T16:13:33.071Z,99.90
2023-01-11T16:15:52.820Z,99.90
2023-01-11T16:18:06.456Z,99.90
2023-01-11T16:20:27.870Z,99.90
2023-01-11T16:22:34.898Z,99.90
2023-01-11T16:24:47.454Z,99.90
2023-01-11T16:26:59.977Z,99.90
2023-01-11T16:29:21.738Z,99.90
2023-01-11T16:31:29.295Z,99.90
2023-01-11T16:33:37.631Z,99.90
2023-01-11T16:35:44.969Z,99.90
2023-01-11T16:37:55.423Z,99.90
2023-01-11T16:40:07.425Z,99.90
2023-01-11T16:42:17.009Z,99.90
2023-01-11T16:44:34.224Z,99.90
2023-01-11T16:47:16.477Z,99.90
2023-01-11T16:49:23.872Z,99.90
2023-01-11T16:51:30.745Z,99.90
2023-01-11T16:53:39.139Z,99.90
2023-01-11T16:55:51.146Z,99.90
2023-01-11T16:58:02.933Z,99.90
2023-01-11T17:00:23.274Z,99.90
2023-01-11T17:02:33.745Z,99.90
2023-01-11T17:04:51.309Z,99.90
2023-01-11T17:06:58.543Z,99.90
2023-01-11T17:09:16.292Z,99.90
2023-01-11T17:11:37.477Z,99.90
2023-01-11T17:14:09.239Z,99.90
2023-01-11T17:16:19.209Z,99.90
2023-01-11T17:18:26.526Z,99.90
2023-01-11T17:20:34.779Z,99.90
2023-01-11T17:22:41.908Z,99.90
2023-01-11T17:24:54.668Z,99.90
2023-01-11T17:27:03.579Z,99.90
2023-01-11T17:29:15.280Z,99.90
2023-01-11T17:31:25.656Z,99.90
2023-01-11T17:33:36.555Z,99.90
2023-01-11T17:35:45.838Z,99.90
2023-01-11T17:37:54.507Z,99.90
2023-01-11T17:40:02.199Z,99.90
2023-01-11T17:42:28.069Z,99.90
2023-01-11T17:44:53.372Z,99.90
2023-01-11T17:47:00.964Z,99.90
2023-01-11T17:49:07.939Z,99.90
2023-01-11T17:51:15.837Z,99.90
2023-01-11T17:53:27.730Z,99.90
2023-01-11T17:55:35.283Z,99.90
2023-01-11T17:57:42.215Z,99.90
2023-01-11T17:59:51.125Z,99.90
2023-01-11T18:02:00.491Z,99.90
2023-01-11T18:04:07.939Z,99.90
2023-01-11T18:06:17.009Z,99.90
2023-01-11T18:08:26.558Z,99.90
2023-01-11T18:10:38.292Z,99.90
2023-01-11T18:12:48.494Z,99.90
2023-01-11T18:15:00.041Z,99.90
2023-01-11T18:17:09.621Z,99.90
2023-01-11T18:19:32.155Z,99.90
2023-01-11T18:21:42.715Z,99.90
2023-01-11T18:23:49.900Z,99.90
2023-01-11T18:26:32.921Z,99.90
2023-01-11T18:28:40.820Z,99.90
2023-01-11T18:30:53.491Z,99.90
2023-01-11T18:33:02.918Z,99.90
2023-01-11T18:35:19.395Z,99.90
2023-01-11T18:37:26.870Z,99.90
2023-01-11T18:39:33.777Z,99.90
2023-01-11T18:41:58.178Z,99.90
2023-01-11T18:44:05.855Z,99.90
2023-01-11T18:46:15.407Z,99.90
2023-01-11T18:48:22.367Z,99.90
2023-01-11T18:50:29.756Z,99.90
2023-01-11T18:52:38.012Z,99.90
2023-01-11T18:54:46.472Z,99.90
2023-01-11T18:56:53.450Z,99.90
2023-01-11T18:59:00.797Z,99.90
2023-01-11T19:01:09.786Z,99.90
2023-01-11T19:03:19.207Z,99.90
2023-01-11T19:05:26.279Z,99.90
2023-01-11T19:07:33.660Z,99.90
2023-01-11T19:09:40.642Z,99.90
2023-01-11T19:11:47.771Z,99.90
2023-01-11T19:13:54.640Z,99.90
2023-01-11T19:16:04.189Z,99.90
2023-01-11T19:18:11.051Z,99.90
2023-01-11T19:20:20.280Z,99.90
2023-01-11T19:22:27.158Z,99.90
2023-01-11T19:24:34.698Z,99.90
2023-01-11T19:26:41.696Z,99.90
2023-01-11T19:28:48.597Z,99.90
2023-01-11T19:30:55.892Z,99.90
2023-01-11T19:33:02.810Z,99.90
2023-01-11T19:35:10.758Z,99.90
2023-01-11T19:37:19.493Z,99.90
2023-01-11T19:39:26.860Z,99.90
2023-01-11T19:41:54.983Z,99.90
2023-01-11T19:44:02.214Z,99.90
2023-01-11T19:46:11.510Z,99.90
2023-01-11T19:48:19.142Z,99.90
2023-01-11T19:50:26.371Z,99.90
2023-01-11T19:52:35.295Z,99.90
2023-01-11T19:54:42.906Z,99.90
2023-01-11T19:56:50.323Z,99.90
2023-01-11T19:58:57.248Z,99.90
2023-01-11T20:01:10.943Z,99.90
2023-01-11T20:03:17.963Z,99.90
2023-01-11T20:05:25.603Z,99.90
2023-01-11T20:07:34.281Z,99.90
2023-01-11T20:09:41.779Z,99.90
2023-01-11T20:11:50.067Z,99.90
2023-01-11T20:13:57.507Z,99.90
2023-01-11T20:16:08.402Z,99.90
2023-01-11T20:18:15.504Z,99.90
2023-01-11T20:20:22.534Z,99.90
2023-01-11T20:22:29.921Z,99.90
2023-01-11T20:24:38.596Z,99.90
2023-01-11T20:26:47.472Z,99.90
2023-01-11T20:28:57.810Z,99.90
2023-01-11T20:31:08.649Z,99.90
2023-01-11T20:33:15.665Z,99.90
2023-01-11T20:35:22.989Z,99.90
2023-01-11T20:37:30.888Z,99.90
2023-01-11T20:39:39.928Z,99.90
2023-01-11T20:41:50.733Z,99.90
2023-01-11T20:43:57.913Z,99.90
2023-01-11T20:46:04.907Z,99.90
2023-01-11T20:48:12.281Z,99.90
2023-01-11T20:50:19.711Z,99.90
2023-01-11T20:52:27.050Z,99.90
2023-01-11T20:54:34.029Z,99.90
2023-01-11T20:56:43.457Z,99.90
2023-01-11T20:58:53.050Z,99.90
2023-01-11T21:01:07.432Z,99.90
2023-01-11T21:03:14.378Z,99.90
2023-01-11T21:05:21.758Z,99.90
2023-01-11T21:07:28.737Z,99.90
2023-01-11T21:09:38.088Z,99.90
2023-01-11T21:11:53.388Z,99.90
2023-01-11T21:14:02.077Z,99.90
2023-01-11T21:16:13.901Z,99.90
2023-01-11T21:18:21.170Z,99.90
2023-01-11T21:20:28.081Z,99.90
2023-01-11T21:22:35.492Z,99.90
2023-01-11T21:24:42.432Z,99.90
2023-01-11T21:26:51.298Z,99.90
2023-01-11T21:29:00.467Z,99.90
2023-01-11T21:31:08.076Z,99.90
2023-01-11T21:33:16.828Z,99.90
2023-01-11T21:35:24.007Z,99.90
2023-01-11T21:37:31.397Z,99.90
2023-01-11T21:39:38.534Z,99.90
2023-01-11T21:41:59.245Z,99.90
2023-01-11T21:44:08.350Z,99.90
2023-01-11T21:46:16.284Z,99.90
2023-01-11T21:48:23.921Z,99.90
2023-01-11T21:50:31.126Z,99.90
2023-01-11T21:52:38.513Z,99.90
2023-01-11T21:54:45.335Z,99.90
2023-01-11T21:56:53.283Z,99.90
2023-01-11T21:59:00.313Z,99.90
2023-01-11T22:01:16.045Z,99.90
2023-01-11T22:03:23.075Z,99.90
2023-01-11T22:05:30.410Z,99.90
2023-01-11T22:07:37.847Z,99.90
2023-01-11T22:10:03.504Z,99.90
2023-01-11T22:12:11.571Z,99.90
2023-01-11T22:14:18.642Z,99.90
2023-01-11T22:16:27.390Z,99.90
2023-01-11T22:18:35.513Z,99.90
2023-01-11T22:20:42.439Z,99.90
2023-01-11T22:22:49.725Z,99.90
2023-01-11T22:24:56.751Z,99.90
2023-01-11T22:27:04.163Z,99.90
2023-01-11T22:29:21.063Z,99.90
2023-01-11T22:31:31.616Z,99.90
2023-01-11T22:33:40.535Z,99.90
2023-01-11T22:35:57.800Z,99.90
2023-01-11T22:38:04.776Z,99.90
2023-01-11T22:40:12.980Z,99.90
2023-01-11T22:42:19.957Z,99.90
2023-01-11T22:44:27.446Z,99.90
2023-01-11T22:46:36.265Z,99.90
2023-01-11T22:48:43.598Z,99.90
2023-01-11T22:50:50.736Z,99.90
2023-01-11T22:52:58.015Z,99.90
2023-01-11T22:55:05.202Z,99.90
2023-01-11T22:57:12.639Z,99.90
2023-01-11T22:59:19.456Z,99.90
2023-01-11T23:01:27.718Z,99.90
2023-01-11T23:03:36.239Z,99.90
2023-01-11T23:05:49.300Z,99.90
2023-01-11T23:07:56.121Z,99.90
2023-01-11T23:10:03.359Z,99.90
2023-01-11T23:12:28.299Z,99.90
2023-01-11T23:14:35.840Z,99.90
2023-01-11T23:16:43.531Z,99.90
2023-01-11T23:18:52.302Z,99.90
2023-01-11T23:21:04.862Z,99.90
2023-01-11T23:23:11.836Z,99.90
2023-01-11T23:25:19.020Z,99.90
2023-01-11T23:27:25.996Z,99.90
2023-01-11T23:29:33.068Z,99.90
2023-01-11T23:31:40.146Z,99.90
2023-01-11T23:33:47.647Z,99.90
2023-01-11T23:36:01.428Z,99.90
2023-01-11T23:38:08.684Z,99.90
2023-01-11T23:40:16.048Z,99.90
2023-01-11T23:42:28.084Z,99.90
2023-01-11T23:44:35.429Z,99.90
2023-01-11T23:47:00.094Z,99.90
2023-01-11T23:49:08.550Z,99.90
2023-01-11T23:51:17.661Z,99.90
2023-01-11T23:53:24.723Z,99.90
2023-01-11T23:55:32.174Z,99.90
2023-01-11T23:57:59.070Z,99.90
